createdAt,value
2019-02-24T00:01:48.694Z,9.77
2019-02-24T00:04:17.484Z,17.00
2019-02-24T00:06:46.250Z,9.03
2019-02-24T00:09:15.087Z,9.00
2019-02-24T00:11:43.918Z,9.33
2019-02-24T00:14:12.753Z,8.37
2019-02-24T00:16:41.608Z,8.87
2019-02-24T00:19:10.373Z,8.90
2019-02-24T00:21:39.146Z,10.30
2019-02-24T00:24:07.951Z,26.23
2019-02-24T00:26:36.731Z,11.70
2019-02-24T00:29:05.505Z,22.57
2019-02-24T00:31:34.259Z,14.83
2019-02-24T00:34:03.031Z,12.33
2019-02-24T00:36:31.791Z,12.07
2019-02-24T00:39:00.569Z,12.90
2019-02-24T00:41:29.324Z,12.57
2019-02-24T00:43:58.105Z,13.57
2019-02-24T00:46:26.878Z,13.60
2019-02-24T00:48:55.655Z,17.67
2019-02-24T00:51:24.507Z,23.17
2019-02-24T00:53:53.345Z,24.40
2019-02-24T00:56:22.118Z,27.47
2019-02-24T00:58:50.889Z,15.53
2019-02-24T01:01:19.659Z,21.33
2019-02-24T01:03:48.421Z,15.53
2019-02-24T01:06:17.190Z,13.43
2019-02-24T01:08:45.968Z,12.77
2019-02-24T01:11:14.747Z,12.17
2019-02-24T01:13:43.529Z,12.67
2019-02-24T01:16:12.279Z,11.03
2019-02-24T01:18:41.054Z,15.23
2019-02-24T01:21:09.830Z,12.20
2019-02-24T01:23:38.588Z,11.70
2019-02-24T01:26:07.363Z,34.07
2019-02-24T01:28:36.141Z,16.27
2019-02-24T01:31:04.915Z,10.87
2019-02-24T01:33:33.681Z,10.80
2019-02-24T01:36:02.748Z,10.65
2019-02-24T01:38:31.554Z,10.70
2019-02-24T01:41:00.408Z,11.77
2019-02-24T01:43:29.173Z,9.47
2019-02-24T01:45:57.970Z,12.10
2019-02-24T01:48:26.742Z,10.90
2019-02-24T01:50:55.546Z,10.83
2019-02-24T01:53:24.304Z,12.13
2019-02-24T01:55:53.073Z,13.77
2019-02-24T01:58:21.851Z,21.50
2019-02-24T02:00:50.607Z,11.87
2019-02-24T02:03:19.463Z,12.30
2019-02-24T02:05:48.311Z,11.90
2019-02-24T02:08:17.156Z,10.93
2019-02-24T02:10:45.923Z,13.87
2019-02-24T02:13:14.695Z,22.77
2019-02-24T02:15:43.487Z,14.53
2019-02-24T02:18:12.272Z,12.57
2019-02-24T02:20:41.042Z,12.33
2019-02-24T02:23:09.852Z,12.57
2019-02-24T02:25:38.619Z,14.07
2019-02-24T02:28:07.468Z,18.43
2019-02-24T02:30:36.245Z,14.80
2019-02-24T02:33:05.003Z,11.13
2019-02-24T02:35:33.863Z,15.57
2019-02-24T02:38:02.714Z,10.87
2019-02-24T02:40:31.570Z,10.40
2019-02-24T02:43:00.338Z,10.63
2019-02-24T02:45:29.176Z,11.13
2019-02-24T02:47:57.944Z,8.97
2019-02-24T02:50:26.958Z,9.70
2019-02-24T02:52:55.739Z,10.47
2019-02-24T02:55:24.584Z,9.07
2019-02-24T02:57:53.372Z,9.20
2019-02-24T03:00:32.630Z,10.03
2019-02-24T03:03:01.392Z,10.03
2019-02-24T03:05:30.164Z,11.57
2019-02-24T03:08:06.613Z,14.83
2019-02-24T03:10:35.381Z,9.63
2019-02-24T03:13:04.197Z,8.20
2019-02-24T03:15:33.013Z,8.10
2019-02-24T03:18:01.786Z,11.93
2019-02-24T03:20:30.632Z,11.17
2019-02-24T03:22:59.396Z,8.93
2019-02-24T03:25:28.187Z,8.73
2019-02-24T03:27:57.007Z,9.67
2019-02-24T03:30:25.781Z,9.83
2019-02-24T03:32:54.615Z,10.17
2019-02-24T03:35:23.381Z,9.57
2019-02-24T03:37:52.142Z,9.37
2019-02-24T03:40:20.979Z,9.83
2019-02-24T03:42:49.732Z,8.97
2019-02-24T03:45:18.482Z,8.63
2019-02-24T03:47:47.258Z,8.63
2019-02-24T03:50:16.144Z,9.87
2019-02-24T03:52:44.920Z,9.77
2019-02-24T03:55:13.768Z,17.67
2019-02-24T03:57:42.544Z,14.37
2019-02-24T04:00:11.396Z,11.70
2019-02-24T04:02:40.165Z,12.03
2019-02-24T04:05:09.015Z,11.97
2019-02-24T04:07:37.783Z,10.40
2019-02-24T04:10:07.359Z,9.47
2019-02-24T04:12:36.122Z,9.80
2019-02-24T04:15:06.125Z,12.27
2019-02-24T04:17:34.886Z,11.63
2019-02-24T04:20:03.961Z,13.13
2019-02-24T04:22:32.737Z,15.00
2019-02-24T04:25:01.510Z,14.57
2019-02-24T04:27:30.341Z,16.60
2019-02-24T04:29:59.100Z,16.03
2019-02-24T04:32:27.879Z,13.10
2019-02-24T04:34:56.662Z,15.60
2019-02-24T04:37:25.422Z,14.63
2019-02-24T04:39:54.216Z,23.30
2019-02-24T04:42:22.994Z,17.10
2019-02-24T04:44:51.773Z,20.30
2019-02-24T04:47:20.620Z,16.73
2019-02-24T04:49:49.385Z,18.23
2019-02-24T04:52:18.245Z,15.03
2019-02-24T04:54:47.010Z,13.60
2019-02-24T04:57:16.035Z,11.47
2019-02-24T04:59:44.883Z,10.10
2019-02-24T05:02:13.642Z,10.17
2019-02-24T05:04:42.483Z,9.90
2019-02-24T05:07:11.269Z,10.30
2019-02-24T05:09:40.061Z,10.57
2019-02-24T05:12:08.831Z,14.33
2019-02-24T05:14:37.604Z,15.30
2019-02-24T05:17:06.451Z,15.93
2019-02-24T05:19:35.303Z,15.27
2019-02-24T05:22:04.084Z,16.70
2019-02-24T05:24:32.861Z,16.67
2019-02-24T05:27:01.638Z,18.67
2019-02-24T05:29:30.408Z,11.80
2019-02-24T05:31:59.165Z,22.87
2019-02-24T05:34:27.948Z,16.93
2019-02-24T05:36:56.735Z,24.43
2019-02-24T05:39:25.512Z,21.93
2019-02-24T05:41:54.281Z,23.37
2019-02-24T05:44:23.134Z,24.50
2019-02-24T05:46:51.906Z,29.87
2019-02-24T05:49:20.746Z,37.20
2019-02-24T05:51:49.516Z,56.70
2019-02-24T05:54:18.289Z,49.90
2019-02-24T05:56:47.081Z,41.97
2019-02-24T05:59:15.867Z,28.67
2019-02-24T06:01:44.658Z,33.27
2019-02-24T06:04:13.597Z,30.73
2019-02-24T06:06:42.357Z,36.97
2019-02-24T06:09:11.151Z,35.00
2019-02-24T06:11:39.931Z,33.57
2019-02-24T06:14:08.727Z,32.27
2019-02-24T06:16:37.508Z,24.80
2019-02-24T06:19:06.272Z,16.03
2019-02-24T06:21:35.146Z,21.43
2019-02-24T06:24:03.994Z,21.20
2019-02-24T06:26:32.750Z,19.57
2019-02-24T06:29:01.609Z,20.80
2019-02-24T06:31:30.458Z,15.23
2019-02-24T06:33:59.314Z,10.83
2019-02-24T06:36:28.082Z,11.47
2019-02-24T06:38:58.495Z,14.70
2019-02-24T06:41:27.289Z,21.63
2019-02-24T06:43:56.125Z,20.87
2019-02-24T06:46:24.912Z,19.93
2019-02-24T06:48:53.671Z,17.77
2019-02-24T06:51:22.517Z,13.57
2019-02-24T06:53:51.313Z,15.90
2019-02-24T06:56:20.074Z,17.93
2019-02-24T06:58:48.904Z,19.10
2019-02-24T07:01:17.772Z,18.40
2019-02-24T07:03:46.623Z,13.60
2019-02-24T07:06:15.391Z,17.33
2019-02-24T07:08:44.153Z,17.40
2019-02-24T07:11:12.927Z,27.97
2019-02-24T07:13:41.693Z,35.73
2019-02-24T07:16:10.575Z,18.93
2019-02-24T07:18:39.353Z,13.03
2019-02-24T07:21:08.116Z,13.33
2019-02-24T07:23:36.971Z,17.10
2019-02-24T07:26:05.826Z,15.37
2019-02-24T07:28:34.656Z,19.87
2019-02-24T07:31:03.455Z,18.43
2019-02-24T07:33:32.321Z,15.50
2019-02-24T07:36:01.186Z,13.00
2019-02-24T07:38:29.950Z,15.03
2019-02-24T07:40:58.747Z,20.07
2019-02-24T07:43:27.518Z,23.63
2019-02-24T07:45:56.308Z,15.03
2019-02-24T07:48:25.100Z,17.40
2019-02-24T07:50:53.873Z,19.70
2019-02-24T07:53:22.665Z,33.60
2019-02-24T07:55:51.417Z,26.07
2019-02-24T07:58:20.199Z,24.73
2019-02-24T08:00:48.967Z,27.90
2019-02-24T08:03:17.823Z,26.87
2019-02-24T08:05:46.580Z,23.00
2019-02-24T08:08:16.627Z,14.30
2019-02-24T08:10:45.561Z,13.57
2019-02-24T08:13:14.400Z,13.87
2019-02-24T08:15:43.145Z,14.00
2019-02-24T08:18:12.000Z,17.20
2019-02-24T08:20:40.843Z,12.17
2019-02-24T08:23:10.991Z,12.30
2019-02-24T08:25:39.873Z,13.13
2019-02-24T08:28:08.732Z,9.53
2019-02-24T08:30:41.698Z,10.47
2019-02-24T08:33:08.168Z,11.50
2019-02-24T08:35:36.957Z,13.27
2019-02-24T08:38:05.786Z,11.77
2019-02-24T08:40:34.636Z,12.87
2019-02-24T08:43:03.475Z,13.40
2019-02-24T08:45:32.316Z,27.13
2019-02-24T08:48:01.307Z,27.67
2019-02-24T08:50:30.043Z,14.93
2019-02-24T08:52:58.822Z,12.53
2019-02-24T08:55:27.670Z,10.47
2019-02-24T08:57:56.502Z,12.80
2019-02-24T09:00:25.353Z,17.13
2019-02-24T09:02:54.128Z,12.03
2019-02-24T09:05:22.970Z,12.37
2019-02-24T09:07:51.733Z,12.73
2019-02-24T09:10:20.579Z,11.83
2019-02-24T09:12:49.348Z,13.80
2019-02-24T09:15:18.121Z,14.10
2019-02-24T09:17:46.976Z,13.50
2019-02-24T09:20:15.903Z,14.87
2019-02-24T09:22:45.059Z,13.83
2019-02-24T09:25:13.944Z,13.60
2019-02-24T09:27:42.728Z,11.93
2019-02-24T09:30:13.387Z,12.67
2019-02-24T09:32:42.138Z,11.27
2019-02-24T09:35:11.015Z,11.27
2019-02-24T09:37:40.460Z,15.90
2019-02-24T09:40:10.965Z,11.73
2019-02-24T09:42:40.321Z,10.95
2019-02-24T09:45:10.766Z,11.33
2019-02-24T09:47:46.389Z,12.10
2019-02-24T09:50:10.543Z,11.80
2019-02-24T09:52:39.398Z,10.37
2019-02-24T09:55:09.231Z,9.73
2019-02-24T09:57:38.687Z,12.37
2019-02-24T10:00:10.645Z,11.60
2019-02-24T10:02:39.483Z,10.90
2019-02-24T10:05:08.398Z,10.60
2019-02-24T10:07:37.191Z,10.53
2019-02-24T10:10:15.309Z,9.33
2019-02-24T10:12:44.072Z,8.43
2019-02-24T10:15:14.588Z,8.50
2019-02-24T10:17:43.483Z,9.47
2019-02-24T10:20:12.940Z,8.00
2019-02-24T10:22:41.784Z,7.40
2019-02-24T10:25:11.222Z,8.00
2019-02-24T10:27:39.987Z,8.83
2019-02-24T10:30:11.418Z,10.47
2019-02-24T10:32:40.270Z,9.00
2019-02-24T10:35:09.055Z,12.10
2019-02-24T10:37:37.909Z,7.70
2019-02-24T10:40:12.602Z,8.57
2019-02-24T10:42:41.457Z,7.63
2019-02-24T10:45:12.801Z,7.83
2019-02-24T10:47:41.679Z,9.27
2019-02-24T10:50:12.627Z,7.70
2019-02-24T10:52:41.467Z,7.17
2019-02-24T10:55:10.448Z,8.40
2019-02-24T10:57:39.356Z,7.63
2019-02-24T11:00:18.615Z,8.23
2019-02-24T11:02:47.393Z,8.63
2019-02-24T11:05:16.763Z,9.10
2019-02-24T11:07:45.555Z,10.67
2019-02-24T11:10:14.396Z,7.83
2019-02-24T11:12:43.266Z,8.13
2019-02-24T11:15:13.101Z,11.33
2019-02-24T11:17:42.060Z,8.77
2019-02-24T11:20:17.768Z,8.20
2019-02-24T11:22:48.714Z,9.70
2019-02-24T11:25:17.564Z,8.73
2019-02-24T11:27:46.443Z,8.70
2019-02-24T11:30:15.987Z,8.83
2019-02-24T11:32:44.761Z,8.30
2019-02-24T11:35:13.999Z,8.57
2019-02-24T11:37:42.871Z,8.57
2019-02-24T11:40:14.106Z,12.80
2019-02-24T11:42:42.887Z,9.87
2019-02-24T11:45:11.740Z,8.13
2019-02-24T11:47:40.578Z,8.83
2019-02-24T11:50:10.925Z,9.07
2019-02-24T11:52:39.692Z,9.20
2019-02-24T11:55:09.859Z,9.20
2019-02-24T11:57:38.624Z,8.83
2019-02-24T12:00:10.445Z,9.17
2019-02-24T12:02:39.219Z,8.77
2019-02-24T12:05:08.687Z,8.90
2019-02-24T12:07:37.550Z,8.03
2019-02-24T12:10:08.981Z,7.70
2019-02-24T12:12:37.741Z,7.50
2019-02-24T12:15:09.911Z,8.57
2019-02-24T12:17:38.659Z,6.60
2019-02-24T12:20:10.306Z,6.50
2019-02-24T12:22:39.173Z,10.67
2019-02-24T12:25:09.859Z,8.20
2019-02-24T12:27:38.622Z,7.40
2019-02-24T12:30:12.345Z,7.27
2019-02-24T12:32:41.183Z,6.80
2019-02-24T12:35:10.006Z,7.30
2019-02-24T12:37:38.856Z,7.00
2019-02-24T12:40:10.623Z,7.13
2019-02-24T12:42:39.393Z,7.30
2019-02-24T12:45:09.531Z,8.80
2019-02-24T12:47:38.464Z,8.60
2019-02-24T12:50:16.101Z,12.40
2019-02-24T12:52:44.860Z,8.10
2019-02-24T12:55:13.624Z,7.13
2019-02-24T12:57:43.378Z,7.33
2019-02-24T13:00:19.237Z,6.43
2019-02-24T13:02:48.015Z,7.40
2019-02-24T13:05:16.853Z,6.23
2019-02-24T13:07:45.618Z,6.57
2019-02-24T13:10:17.387Z,6.63
2019-02-24T13:12:46.160Z,7.80
2019-02-24T13:15:14.922Z,6.90
2019-02-24T13:17:43.767Z,7.57
2019-02-24T13:20:12.913Z,8.23
2019-02-24T13:22:41.864Z,7.17
2019-02-24T13:25:14.506Z,6.73
2019-02-24T13:27:43.369Z,6.93
2019-02-24T13:30:13.408Z,6.57
2019-02-24T13:32:42.276Z,6.60
2019-02-24T13:35:11.120Z,6.60
2019-02-24T13:37:39.918Z,5.87
2019-02-24T13:40:13.401Z,6.23
2019-02-24T13:42:42.244Z,6.70
2019-02-24T13:45:13.914Z,6.13
2019-02-24T13:47:42.756Z,6.47
2019-02-24T13:50:11.629Z,12.77
2019-02-24T13:52:40.506Z,7.03
2019-02-24T13:55:11.439Z,9.37
2019-02-24T13:57:40.218Z,10.50
2019-02-24T14:00:17.049Z,6.83
2019-02-24T14:02:45.910Z,10.53
2019-02-24T14:05:14.691Z,6.00
2019-02-24T14:07:43.534Z,7.17
2019-02-24T14:10:13.572Z,5.90
2019-02-24T14:12:42.415Z,6.37
2019-02-24T14:15:15.481Z,7.00
2019-02-24T14:17:44.330Z,6.47
2019-02-24T14:20:17.322Z,6.13
2019-02-24T14:22:46.159Z,7.20
2019-02-24T14:25:15.911Z,6.00
2019-02-24T14:27:44.757Z,6.03
2019-02-24T14:30:17.216Z,5.40
2019-02-24T14:32:45.982Z,5.50
2019-02-24T14:35:23.113Z,6.20
2019-02-24T14:37:51.965Z,6.23
2019-02-24T14:40:20.711Z,5.73
2019-02-24T14:42:49.489Z,5.23
2019-02-24T14:45:20.044Z,5.80
2019-02-24T14:47:48.892Z,5.60
2019-02-24T14:50:17.950Z,6.53
2019-02-24T14:52:46.813Z,7.80
2019-02-24T14:55:16.171Z,8.37
2019-02-24T14:57:45.032Z,7.23
2019-02-24T15:00:18.607Z,6.37
2019-02-24T15:02:47.664Z,6.60
2019-02-24T15:05:16.963Z,8.17
2019-02-24T15:07:45.893Z,7.43
2019-02-24T15:10:25.973Z,6.80
2019-02-24T15:12:54.887Z,6.43
2019-02-24T15:15:33.119Z,7.30
2019-02-24T15:17:59.122Z,10.07
2019-02-24T15:20:27.904Z,8.00
2019-02-24T15:22:56.666Z,8.37
2019-02-24T15:25:25.519Z,8.77
2019-02-24T15:27:54.378Z,13.93
2019-02-24T15:30:34.631Z,20.27
2019-02-24T15:33:03.494Z,20.93
2019-02-24T15:35:32.333Z,21.77
2019-02-24T15:38:01.224Z,12.60
2019-02-24T15:40:29.972Z,13.87
2019-02-24T15:42:58.839Z,10.97
2019-02-24T15:45:27.633Z,8.40
2019-02-24T15:47:56.498Z,9.20
2019-02-24T15:50:25.345Z,12.63
2019-02-24T15:52:54.115Z,10.33
2019-02-24T15:55:22.968Z,10.53
2019-02-24T15:57:51.843Z,9.97
2019-02-24T16:00:22.398Z,11.60
2019-02-24T16:02:51.229Z,12.73
2019-02-24T16:05:20.093Z,13.17
2019-02-24T16:07:48.994Z,14.30
2019-02-24T16:10:21.502Z,13.13
2019-02-24T16:12:50.371Z,13.80
2019-02-24T16:15:28.854Z,17.73
2019-02-24T16:17:57.708Z,56.27
2019-02-24T16:20:28.644Z,56.57
2019-02-24T16:22:57.516Z,33.20
2019-02-24T16:25:29.263Z,21.97
2019-02-24T16:27:58.024Z,19.77
2019-02-24T16:30:26.870Z,19.43
2019-02-24T16:32:55.715Z,18.07
2019-02-24T16:35:24.504Z,21.60
2019-02-24T16:37:53.296Z,25.83
2019-02-24T16:40:27.045Z,32.73
2019-02-24T16:42:55.918Z,38.63
2019-02-24T16:45:24.796Z,56.80
2019-02-24T16:47:53.687Z,29.87
2019-02-24T16:50:25.682Z,31.03
2019-02-24T16:52:55.145Z,20.03
2019-02-24T16:55:23.974Z,19.27
2019-02-24T16:57:52.770Z,43.97
2019-02-24T17:00:26.315Z,27.43
2019-02-24T17:02:55.122Z,17.17
2019-02-24T17:05:23.982Z,14.73
2019-02-24T17:07:52.830Z,25.17
2019-02-24T17:10:26.099Z,13.73
2019-02-24T17:12:56.616Z,16.90
2019-02-24T17:15:25.474Z,23.73
2019-02-24T17:17:54.257Z,15.90
2019-02-24T17:20:24.264Z,17.10
2019-02-24T17:22:53.118Z,28.07
2019-02-24T17:25:21.991Z,39.23
2019-02-24T17:27:50.777Z,54.77
2019-02-24T17:30:19.563Z,28.67
2019-02-24T17:32:48.432Z,49.57
2019-02-24T17:35:17.300Z,43.87
2019-02-24T17:37:46.152Z,31.50
2019-02-24T17:40:19.795Z,23.67
2019-02-24T17:42:48.796Z,44.13
2019-02-24T17:45:17.583Z,32.47
2019-02-24T17:47:46.432Z,34.33
2019-02-24T17:50:17.240Z,28.27
2019-02-24T17:52:46.084Z,26.87
2019-02-24T17:55:16.680Z,22.83
2019-02-24T17:57:45.536Z,27.37
2019-02-24T18:00:27.707Z,37.17
2019-02-24T18:02:56.504Z,25.30
2019-02-24T18:05:25.396Z,33.60
2019-02-24T18:07:54.253Z,32.80
2019-02-24T18:10:23.318Z,42.97
2019-02-24T18:12:52.208Z,30.83
2019-02-24T18:15:21.189Z,35.37
2019-02-24T18:17:50.052Z,44.17
2019-02-24T18:20:24.616Z,29.90
2019-02-24T18:22:53.983Z,33.03
2019-02-24T18:25:22.856Z,38.13
2019-02-24T18:27:51.727Z,25.30
2019-02-24T18:30:28.371Z,23.73
2019-02-24T18:32:57.225Z,32.47
2019-02-24T18:35:26.113Z,32.17
2019-02-24T18:37:54.964Z,27.43
2019-02-24T18:40:23.846Z,28.50
2019-02-24T18:43:00.122Z,32.80
2019-02-24T18:45:24.019Z,25.77
2019-02-24T18:47:52.951Z,27.37
2019-02-24T18:50:23.324Z,24.13
2019-02-24T18:52:52.184Z,22.40
2019-02-24T18:55:20.970Z,24.87
2019-02-24T18:57:49.628Z,27.70
2019-02-24T19:00:23.366Z,32.63
2019-02-24T19:02:52.288Z,28.60
2019-02-24T19:05:21.163Z,29.80
2019-02-24T19:07:53.297Z,31.37
2019-02-24T19:10:23.446Z,35.50
2019-02-24T19:12:52.287Z,34.27
2019-02-24T19:15:22.797Z,34.80
2019-02-24T19:17:51.675Z,31.10
2019-02-24T19:20:21.659Z,27.57
2019-02-24T19:22:50.434Z,27.03
2019-02-24T19:25:19.409Z,42.37
2019-02-24T19:27:48.282Z,48.67
2019-02-24T19:30:22.783Z,53.13
2019-02-24T19:32:51.658Z,32.53
2019-02-24T19:35:20.517Z,33.93
2019-02-24T19:37:49.660Z,36.17
2019-02-24T19:40:19.326Z,22.87
2019-02-24T19:42:48.273Z,17.00
2019-02-24T19:45:23.000Z,15.80
2019-02-24T19:47:51.875Z,16.60
2019-02-24T19:50:23.035Z,15.57
2019-02-24T19:52:53.285Z,25.50
2019-02-24T19:55:23.608Z,17.83
2019-02-24T19:57:52.516Z,14.00
2019-02-24T20:00:22.620Z,14.13
2019-02-24T20:02:51.611Z,15.03
2019-02-24T20:05:21.077Z,13.17
2019-02-24T20:07:51.282Z,14.60
2019-02-24T20:10:22.214Z,14.07
2019-02-24T20:12:51.093Z,15.17
2019-02-24T20:15:19.794Z,14.60
2019-02-24T20:17:48.796Z,14.77
2019-02-24T20:20:19.411Z,13.13
2019-02-24T20:22:48.290Z,14.47
2019-02-24T20:25:19.541Z,14.00
2019-02-24T20:27:48.477Z,14.53
2019-02-24T20:30:27.460Z,12.13
2019-02-24T20:32:57.310Z,14.50
2019-02-24T20:35:27.627Z,15.37
2019-02-24T20:37:56.493Z,13.97
2019-02-24T20:40:25.339Z,16.13
2019-02-24T20:42:54.146Z,24.30
2019-02-24T20:45:24.001Z,26.53
2019-02-24T20:47:54.053Z,38.40
2019-02-24T20:50:31.548Z,22.90
2019-02-24T20:53:00.392Z,16.37
2019-02-24T20:55:29.195Z,16.40
2019-02-24T20:57:58.066Z,15.77
2019-02-24T21:00:29.496Z,15.90
2019-02-24T21:02:58.262Z,16.67
2019-02-24T21:05:27.128Z,16.33
2019-02-24T21:07:55.972Z,14.23
2019-02-24T21:10:24.747Z,13.10
2019-02-24T21:12:53.613Z,13.60
2019-02-24T21:15:22.486Z,15.70
2019-02-24T21:17:51.249Z,15.93
2019-02-24T21:20:22.417Z,17.30
2019-02-24T21:22:51.269Z,21.13
2019-02-24T21:25:20.126Z,19.60
2019-02-24T21:27:48.893Z,16.00
2019-02-24T21:30:19.923Z,14.67
2019-02-24T21:32:48.761Z,14.13
2019-02-24T21:35:17.675Z,15.10
2019-02-24T21:37:46.449Z,15.17
2019-02-24T21:40:19.961Z,15.63
2019-02-24T21:42:48.819Z,23.77
2019-02-24T21:45:23.037Z,24.33
2019-02-24T21:47:51.893Z,25.67
2019-02-24T21:50:20.696Z,24.53
2019-02-24T21:52:49.561Z,27.77
2019-02-24T21:55:18.411Z,21.83
2019-02-24T21:57:47.194Z,25.87
2019-02-24T22:00:21.117Z,20.53
2019-02-24T22:02:49.953Z,16.60
2019-02-24T22:05:18.942Z,17.17
2019-02-24T22:07:47.779Z,15.57
2019-02-24T22:10:17.150Z,17.33
2019-02-24T22:12:45.942Z,26.30
2019-02-24T22:15:22.164Z,63.60
2019-02-24T22:17:51.036Z,45.80
2019-02-24T22:20:19.891Z,34.70
2019-02-24T22:22:48.679Z,64.20
2019-02-24T22:25:17.569Z,22.23
2019-02-24T22:27:46.419Z,20.90
2019-02-24T22:30:17.607Z,19.57
2019-02-24T22:32:46.453Z,20.80
2019-02-24T22:35:15.251Z,19.63
2019-02-24T22:37:44.075Z,19.77
2019-02-24T22:40:16.431Z,17.03
2019-02-24T22:42:44.909Z,16.70
2019-02-24T22:45:18.371Z,16.80
2019-02-24T22:47:47.213Z,16.77
2019-02-24T22:50:16.973Z,17.50
2019-02-24T22:52:46.325Z,17.17
2019-02-24T22:55:16.214Z,16.13
2019-02-24T22:57:45.097Z,14.23
2019-02-24T23:00:48.376Z,11.53
2019-02-24T23:03:17.234Z,13.23
2019-02-24T23:05:46.070Z,12.00
2019-02-24T23:08:14.943Z,10.47
2019-02-24T23:10:43.722Z,12.13
2019-02-24T23:13:12.489Z,11.70
2019-02-24T23:15:41.323Z,11.77
2019-02-24T23:18:10.182Z,12.30
2019-02-24T23:20:39.096Z,13.70
2019-02-24T23:23:07.932Z,11.03
2019-02-24T23:25:36.763Z,12.43
2019-02-24T23:28:05.632Z,12.70
2019-02-24T23:30:34.425Z,12.60
2019-02-24T23:33:03.201Z,12.83
2019-02-24T23:35:32.060Z,13.50
2019-02-24T23:38:00.830Z,13.20
2019-02-24T23:40:29.631Z,13.07
2019-02-24T23:42:58.411Z,12.40
2019-02-24T23:45:27.214Z,9.93
2019-02-24T23:47:56.068Z,11.37
2019-02-24T23:50:24.937Z,10.77
2019-02-24T23:52:53.777Z,10.70
2019-02-24T23:55:22.630Z,12.23
2019-02-24T23:57:51.483Z,12.47
